createdAt,value
2023-05-08T00:00:38.690Z,66.47
2023-05-08T00:03:05.090Z,66.29
2023-05-08T00:05:31.477Z,65.91
2023-05-08T00:08:01.445Z,65.71
2023-05-08T00:10:28.884Z,66.32
2023-05-08T00:12:55.791Z,65.88
2023-05-08T00:15:22.233Z,65.82
2023-05-08T00:17:48.639Z,66.06
2023-05-08T00:20:15.325Z,65.89
2023-05-08T00:22:41.867Z,66.52
2023-05-08T00:25:09.053Z,65.95
2023-05-08T00:27:35.474Z,66.74
2023-05-08T00:30:01.890Z,67.11
2023-05-08T00:32:28.886Z,67.56
2023-05-08T00:34:55.402Z,67.58
2023-05-08T00:37:21.825Z,67.96
2023-05-08T00:39:48.175Z,68.40
2023-05-08T00:42:14.688Z,68.93
2023-05-08T00:44:41.269Z,68.38
2023-05-08T00:47:07.805Z,67.76
2023-05-08T00:49:35.668Z,68.48
2023-05-08T00:52:02.405Z,67.26
2023-05-08T00:54:28.758Z,67.54
2023-05-08T00:56:55.236Z,67.64
2023-05-08T00:59:22.679Z,68.38
2023-05-08T01:01:49.273Z,67.73
2023-05-08T01:04:16.099Z,67.80
2023-05-08T01:06:42.470Z,68.03
2023-05-08T01:09:08.794Z,70.06
2023-05-08T01:11:41.294Z,69.57
2023-05-08T01:14:11.163Z,69.41
2023-05-08T01:16:45.071Z,68.85
2023-05-08T01:19:20.948Z,68.65
2023-05-08T01:22:10.612Z,68.17
2023-05-08T01:24:43.453Z,69.92
2023-05-08T01:27:09.818Z,71.16
2023-05-08T01:29:44.186Z,70.46
2023-05-08T01:32:21.155Z,70.90
2023-05-08T01:35:17.016Z,70.94
2023-05-08T01:37:46.213Z,70.75
2023-05-08T01:40:13.469Z,70.63
2023-05-08T01:42:43.054Z,71.37
2023-05-08T01:45:11.233Z,70.74
2023-05-08T01:47:37.942Z,71.37
2023-05-08T01:50:22.356Z,70.91
2023-05-08T01:52:50.481Z,71.06
2023-05-08T01:55:18.735Z,70.58
2023-05-08T01:57:47.299Z,71.28
2023-05-08T02:00:14.275Z,71.41
2023-05-08T02:02:40.976Z,71.43
2023-05-08T02:05:07.663Z,72.71
2023-05-08T02:07:35.156Z,71.99
2023-05-08T02:10:03.233Z,71.49
2023-05-08T02:12:29.833Z,71.73
2023-05-08T02:14:56.169Z,71.49
2023-05-08T02:17:22.549Z,72.36
2023-05-08T02:19:48.963Z,72.16
2023-05-08T02:22:15.591Z,72.49
2023-05-08T02:24:41.929Z,71.29
2023-05-08T02:27:08.483Z,70.77
2023-05-08T02:29:34.965Z,71.97
2023-05-08T02:32:01.358Z,72.30
2023-05-08T02:34:28.274Z,71.61
2023-05-08T02:36:54.646Z,71.71
2023-05-08T02:39:21.427Z,72.46
2023-05-08T02:41:47.882Z,73.21
2023-05-08T02:44:14.285Z,74.55
2023-05-08T02:46:53.991Z,74.10
2023-05-08T02:49:43.529Z,73.70
2023-05-08T02:52:14.010Z,73.39
2023-05-08T02:55:00.633Z,74.81
2023-05-08T02:57:37.630Z,74.55
2023-05-08T03:00:13.355Z,74.31
2023-05-08T03:02:43.957Z,74.27
2023-05-08T03:05:15.361Z,74.44
2023-05-08T03:07:41.846Z,75.00
2023-05-08T03:10:10.808Z,75.24
2023-05-08T03:12:39.441Z,74.54
2023-05-08T03:15:07.787Z,74.46
2023-05-08T03:17:34.257Z,74.30
2023-05-08T03:20:01.456Z,74.51
2023-05-08T03:22:27.782Z,75.38
2023-05-08T03:24:54.128Z,74.94
2023-05-08T03:27:20.508Z,74.80
2023-05-08T03:29:46.892Z,75.34
2023-05-08T03:32:13.538Z,74.81
2023-05-08T03:34:39.856Z,74.30
2023-05-08T03:37:06.168Z,75.21
2023-05-08T03:39:32.577Z,74.40
2023-05-08T03:41:58.967Z,74.76
2023-05-08T03:44:25.425Z,74.77
2023-05-08T03:46:52.897Z,74.68
2023-05-08T03:49:19.350Z,74.46
2023-05-08T03:51:45.715Z,74.26
2023-05-08T03:54:12.138Z,74.37
2023-05-08T03:56:38.614Z,74.24
2023-05-08T03:59:15.220Z,73.44
2023-05-08T04:01:48.897Z,74.35
2023-05-08T04:04:15.317Z,73.83
2023-05-08T04:06:50.559Z,72.97
2023-05-08T04:09:18.878Z,73.00
2023-05-08T04:11:51.432Z,73.29
2023-05-08T04:14:19.574Z,72.00
2023-05-08T04:16:50.246Z,72.79
2023-05-08T04:19:20.965Z,72.50
2023-05-08T04:21:47.306Z,72.94
2023-05-08T04:24:15.013Z,72.46
2023-05-08T04:26:41.969Z,72.79
2023-05-08T04:29:08.272Z,72.69
2023-05-08T04:31:34.904Z,71.22
2023-05-08T04:34:01.863Z,70.45
2023-05-08T04:36:29.492Z,71.68
2023-05-08T04:38:55.863Z,70.93
2023-05-08T04:41:22.681Z,70.63
2023-05-08T04:43:49.105Z,70.17
2023-05-08T04:46:15.495Z,70.29
2023-05-08T04:48:41.916Z,68.89
2023-05-08T04:51:08.299Z,68.82
2023-05-08T04:53:34.614Z,69.62
2023-05-08T04:56:01.044Z,68.71
2023-05-08T04:58:28.936Z,68.69
2023-05-08T05:00:55.260Z,68.74
2023-05-08T05:03:21.750Z,68.13
2023-05-08T05:05:48.110Z,68.18
2023-05-08T05:08:14.429Z,67.27
2023-05-08T05:10:40.903Z,67.51
2023-05-08T05:13:07.290Z,66.93
2023-05-08T05:15:33.714Z,65.81
2023-05-08T05:18:00.319Z,66.38
2023-05-08T05:20:26.740Z,64.73
2023-05-08T05:22:53.096Z,64.39
2023-05-08T05:25:19.568Z,63.74
2023-05-08T05:27:45.952Z,63.98
2023-05-08T05:30:12.622Z,63.46
2023-05-08T05:32:39.332Z,62.75
2023-05-08T05:35:08.133Z,62.45
2023-05-08T05:37:34.457Z,61.69
2023-05-08T05:40:00.827Z,61.39
2023-05-08T05:42:27.196Z,60.14
2023-05-08T05:44:53.549Z,59.97
2023-05-08T05:47:20.014Z,59.69
2023-05-08T05:49:49.178Z,59.24
2023-05-08T05:52:16.845Z,57.98
2023-05-08T05:54:43.475Z,57.58
2023-05-08T05:57:09.866Z,56.97
2023-05-08T05:59:36.555Z,56.49
2023-05-08T06:02:03.509Z,55.72
2023-05-08T06:04:29.994Z,55.02
2023-05-08T06:06:56.727Z,54.44
2023-05-08T06:09:23.090Z,54.42
2023-05-08T06:11:49.384Z,53.93
2023-05-08T06:14:15.768Z,52.70
2023-05-08T06:16:42.274Z,50.01
2023-05-08T06:19:08.629Z,50.87
2023-05-08T06:21:34.939Z,50.22
2023-05-08T06:24:03.821Z,49.88
2023-05-08T06:26:30.240Z,49.76
2023-05-08T06:28:56.801Z,49.69
2023-05-08T06:31:23.252Z,48.50
2023-05-08T06:33:49.616Z,47.11
2023-05-08T06:36:17.170Z,47.34
2023-05-08T06:38:43.569Z,45.46
2023-05-08T06:41:09.915Z,45.00
2023-05-08T06:43:36.222Z,45.51
2023-05-08T06:46:02.692Z,45.22
2023-05-08T06:48:29.205Z,43.30
2023-05-08T06:50:56.390Z,43.14
2023-05-08T06:53:22.877Z,42.49
2023-05-08T06:55:49.225Z,42.81
2023-05-08T06:58:15.793Z,43.93
2023-05-08T07:00:42.584Z,41.19
2023-05-08T07:03:09.007Z,42.33
2023-05-08T07:05:35.487Z,41.57
2023-05-08T07:08:02.012Z,40.37
2023-05-08T07:10:28.424Z,41.09
2023-05-08T07:12:54.881Z,40.23
2023-05-08T07:15:26.531Z,42.40
2023-05-08T07:17:53.636Z,42.64
2023-05-08T07:20:20.379Z,40.85
2023-05-08T07:22:46.788Z,39.21
2023-05-08T07:25:13.332Z,37.56
2023-05-08T07:27:39.962Z,37.82
2023-05-08T07:30:06.811Z,40.33
2023-05-08T07:32:33.202Z,40.92
2023-05-08T07:34:59.676Z,41.47
2023-05-08T07:37:26.176Z,41.50
2023-05-08T07:39:52.612Z,40.87
2023-05-08T07:42:18.934Z,36.16
2023-05-08T07:44:54.479Z,38.45
2023-05-08T07:47:21.710Z,38.99
2023-05-08T07:49:48.078Z,37.71
2023-05-08T07:52:14.463Z,38.10
2023-05-08T07:54:40.814Z,38.20
2023-05-08T07:57:07.216Z,35.61
2023-05-08T07:59:33.611Z,35.88
2023-05-08T08:02:00.245Z,37.90
2023-05-08T08:04:27.801Z,37.69
2023-05-08T08:06:54.329Z,37.83
2023-05-08T08:09:20.740Z,37.09
2023-05-08T08:11:47.323Z,31.26
2023-05-08T08:14:13.680Z,31.59
2023-05-08T08:16:40.062Z,33.40
2023-05-08T08:19:06.815Z,32.36
2023-05-08T08:21:33.166Z,34.46
2023-05-08T08:23:59.711Z,33.88
2023-05-08T08:26:26.831Z,32.16
2023-05-08T08:28:53.169Z,29.53
2023-05-08T08:31:20.082Z,31.48
2023-05-08T08:33:46.726Z,31.99
2023-05-08T08:36:13.843Z,31.80
2023-05-08T08:38:40.210Z,30.32
2023-05-08T08:41:06.541Z,30.26
2023-05-08T08:43:33.204Z,29.62
2023-05-08T08:46:00.800Z,27.84
2023-05-08T08:48:28.132Z,27.20
2023-05-08T08:50:57.665Z,26.81
2023-05-08T08:53:26.187Z,27.67
2023-05-08T08:55:53.833Z,27.88
2023-05-08T08:58:40.608Z,28.75
2023-05-08T09:01:07.342Z,30.39
2023-05-08T09:03:33.774Z,28.59
2023-05-08T09:06:03.269Z,28.75
2023-05-08T09:08:29.849Z,27.44
2023-05-08T09:10:59.227Z,27.93
2023-05-08T09:13:26.289Z,28.64
2023-05-08T09:15:53.327Z,27.77
2023-05-08T09:18:19.658Z,27.72
2023-05-08T09:20:46.126Z,26.87
2023-05-08T09:23:15.129Z,27.95
2023-05-08T09:25:45.485Z,27.26
2023-05-08T09:28:16.079Z,26.59
2023-05-08T09:31:08.565Z,27.15
2023-05-08T09:33:34.910Z,27.33
2023-05-08T09:36:01.240Z,27.10
2023-05-08T09:38:34.875Z,26.01
2023-05-08T09:41:10.280Z,25.51
2023-05-08T09:43:36.772Z,26.82
2023-05-08T09:46:24.681Z,26.71
2023-05-08T09:48:51.610Z,26.10
2023-05-08T09:51:18.204Z,26.81
2023-05-08T09:53:44.724Z,26.56
2023-05-08T09:56:11.127Z,27.23
2023-05-08T09:58:38.382Z,25.47
2023-05-08T10:01:04.884Z,25.49
2023-05-08T10:03:47.796Z,26.86
2023-05-08T10:06:14.847Z,25.04
2023-05-08T10:08:41.431Z,26.02
2023-05-08T10:11:15.302Z,25.28
2023-05-08T10:13:41.714Z,26.06
2023-05-08T10:16:08.161Z,25.89
2023-05-08T10:18:36.094Z,26.16
2023-05-08T10:21:02.939Z,26.03
2023-05-08T10:23:29.339Z,25.25
2023-05-08T10:25:56.216Z,25.83
2023-05-08T10:28:29.434Z,25.05
2023-05-08T10:30:56.833Z,25.07
2023-05-08T10:33:23.957Z,26.26
2023-05-08T10:35:50.451Z,27.20
2023-05-08T10:38:16.926Z,26.50
2023-05-08T10:40:43.346Z,25.92
2023-05-08T10:43:09.861Z,27.06
2023-05-08T10:45:36.212Z,26.56
2023-05-08T10:48:16.627Z,24.33
2023-05-08T10:50:52.349Z,25.25
2023-05-08T10:53:24.842Z,25.55
2023-05-08T10:55:51.739Z,25.91
2023-05-08T10:58:24.342Z,26.07
2023-05-08T11:00:56.735Z,25.29
2023-05-08T11:03:31.244Z,25.30
2023-05-08T11:05:58.990Z,27.03
2023-05-08T11:08:27.450Z,25.12
2023-05-08T11:11:05.017Z,25.42
2023-05-08T11:13:38.078Z,25.94
2023-05-08T11:16:06.585Z,26.10
2023-05-08T11:21:06.189Z,25.97
2023-05-08T11:23:33.325Z,27.27
2023-05-08T11:26:06.580Z,27.98
2023-05-08T11:28:34.433Z,27.51
2023-05-08T11:31:04.742Z,27.10
2023-05-08T11:33:37.085Z,28.10
2023-05-08T11:36:15.422Z,28.14
2023-05-08T11:38:43.521Z,26.39
2023-05-08T11:41:10.684Z,26.68
2023-05-08T11:43:44.207Z,27.22
2023-05-08T11:46:13.675Z,26.79
2023-05-08T11:48:40.072Z,26.53
2023-05-08T11:51:06.487Z,26.18
2023-05-08T11:53:33.019Z,27.21
2023-05-08T11:55:59.756Z,27.28
2023-05-08T11:58:26.384Z,26.09
2023-05-08T12:00:53.115Z,25.95
2023-05-08T12:03:20.156Z,25.82
2023-05-08T12:05:46.807Z,26.67
2023-05-08T12:08:13.824Z,26.63
2023-05-08T12:10:46.889Z,25.94
2023-05-08T12:13:18.100Z,26.61
2023-05-08T12:15:45.230Z,26.99
2023-05-08T12:18:11.707Z,25.99
2023-05-08T12:20:38.237Z,25.92
2023-05-08T12:23:04.688Z,25.47
2023-05-08T12:25:31.109Z,25.51
2023-05-08T12:27:57.590Z,26.11
2023-05-08T12:30:23.977Z,26.13
2023-05-08T12:32:50.386Z,26.50
2023-05-08T12:35:16.805Z,26.71
2023-05-08T12:37:44.754Z,27.47
2023-05-08T12:40:22.849Z,26.66
2023-05-08T12:42:49.411Z,27.92
2023-05-08T12:45:23.521Z,27.24
2023-05-08T12:47:50.416Z,25.96
2023-05-08T12:50:17.565Z,27.00
2023-05-08T12:52:44.327Z,25.96
2023-05-08T12:55:20.662Z,26.19
2023-05-08T12:57:47.162Z,26.66
2023-05-08T13:00:15.634Z,27.00
2023-05-08T13:02:51.248Z,27.17
2023-05-08T13:05:21.324Z,27.96
2023-05-08T13:07:47.914Z,29.09
2023-05-08T13:10:14.515Z,26.23
2023-05-08T13:12:41.008Z,29.48
2023-05-08T13:15:07.738Z,27.39
2023-05-08T13:17:34.277Z,27.75
2023-05-08T13:20:00.845Z,27.45
2023-05-08T13:22:27.265Z,27.37
2023-05-08T13:24:53.684Z,26.97
2023-05-08T13:27:20.309Z,27.15
2023-05-08T13:29:46.663Z,26.95
2023-05-08T13:32:13.054Z,26.89
2023-05-08T13:34:47.209Z,26.17
2023-05-08T13:37:16.013Z,26.68
2023-05-08T13:39:42.354Z,28.11
2023-05-08T13:42:08.840Z,26.31
2023-05-08T13:44:35.297Z,26.79
2023-05-08T13:47:01.681Z,26.74
2023-05-08T13:49:28.182Z,29.33
2023-05-08T13:51:57.067Z,27.02
2023-05-08T13:54:23.811Z,27.01
2023-05-08T13:56:50.294Z,26.78
2023-05-08T13:59:16.751Z,26.76
2023-05-08T14:01:44.311Z,27.06
2023-05-08T14:04:10.879Z,26.34
2023-05-08T14:06:37.382Z,26.20
2023-05-08T14:09:11.269Z,26.37
2023-05-08T14:11:37.615Z,25.32
2023-05-08T14:14:04.211Z,26.38
2023-05-08T14:16:30.597Z,26.71
2023-05-08T14:18:56.972Z,26.05
2023-05-08T14:21:23.415Z,25.91
2023-05-08T14:23:49.917Z,26.27
2023-05-08T14:26:16.361Z,26.77
2023-05-08T14:28:42.700Z,26.20
2023-05-08T14:31:09.065Z,27.49
2023-05-08T14:33:35.490Z,27.37
2023-05-08T14:36:01.956Z,27.07
2023-05-08T14:38:28.339Z,27.16
2023-05-08T14:40:54.764Z,26.68
2023-05-08T14:43:21.481Z,27.25
2023-05-08T14:45:47.891Z,27.81
2023-05-08T14:48:14.624Z,27.70
2023-05-08T14:50:40.982Z,27.61
2023-05-08T14:53:07.516Z,27.46
2023-05-08T14:55:34.147Z,27.10
2023-05-08T14:58:00.682Z,27.61
2023-05-08T15:00:27.020Z,27.70
2023-05-08T15:02:53.416Z,27.97
2023-05-08T15:05:20.512Z,27.80
2023-05-08T15:07:47.074Z,28.29
2023-05-08T15:10:13.453Z,28.35
2023-05-08T15:12:39.840Z,28.10
2023-05-08T15:15:06.492Z,27.83
2023-05-08T15:17:35.604Z,27.60
2023-05-08T15:20:05.476Z,28.17
2023-05-08T15:22:31.986Z,28.65
2023-05-08T15:25:02.449Z,28.06
2023-05-08T15:27:29.631Z,28.85
2023-05-08T15:29:56.184Z,28.91
2023-05-08T15:32:22.676Z,28.42
2023-05-08T15:34:49.089Z,28.68
2023-05-08T15:37:15.429Z,28.95
2023-05-08T15:39:43.112Z,28.86
2023-05-08T15:42:09.480Z,29.51
2023-05-08T15:47:05.303Z,29.55
2023-05-08T15:49:31.654Z,29.99
2023-05-08T15:51:57.990Z,29.82
2023-05-08T15:54:24.339Z,30.21
2023-05-08T15:56:51.002Z,30.19
2023-05-08T15:59:17.438Z,30.59
2023-05-08T16:01:43.857Z,30.48
2023-05-08T16:04:10.236Z,30.99
2023-05-08T16:06:36.630Z,31.50
2023-05-08T16:09:03.127Z,32.24
2023-05-08T16:11:32.456Z,31.86
2023-05-08T16:13:59.800Z,31.84
2023-05-08T16:16:26.361Z,32.71
2023-05-08T16:18:52.807Z,31.68
2023-05-08T16:21:19.291Z,32.00
2023-05-08T16:23:46.042Z,33.20
2023-05-08T16:26:14.016Z,31.24
2023-05-08T16:28:40.516Z,31.33
2023-05-08T16:31:07.685Z,31.68
2023-05-08T16:35:23.621Z,31.14
2023-05-08T16:37:50.021Z,31.76
2023-05-08T16:40:16.494Z,32.67
2023-05-08T16:42:42.891Z,33.75
2023-05-08T16:45:09.468Z,33.15
2023-05-08T16:47:36.076Z,33.91
2023-05-08T16:50:03.078Z,34.34
2023-05-08T16:52:29.458Z,34.23
2023-05-08T16:54:55.886Z,34.83
2023-05-08T16:57:22.501Z,35.43
2023-05-08T16:59:49.066Z,35.16
2023-05-08T17:02:19.360Z,35.27
2023-05-08T17:04:47.267Z,35.43
2023-05-08T17:07:14.393Z,35.51
2023-05-08T17:09:41.364Z,35.72
2023-05-08T17:12:08.025Z,35.84
2023-05-08T17:14:34.633Z,36.75
2023-05-08T17:17:01.012Z,37.18
2023-05-08T17:19:27.397Z,36.94
2023-05-08T17:21:53.746Z,36.84
2023-05-08T17:24:20.165Z,36.72
2023-05-08T17:26:46.602Z,36.63
2023-05-08T17:29:13.018Z,36.14
2023-05-08T17:31:39.666Z,36.56
2023-05-08T17:34:06.163Z,36.66
2023-05-08T17:36:32.552Z,36.42
2023-05-08T17:38:58.903Z,36.06
2023-05-08T17:41:25.688Z,36.23
2023-05-08T17:43:52.360Z,36.14
2023-05-08T17:46:18.728Z,36.26
2023-05-08T17:48:45.196Z,36.48
2023-05-08T17:51:11.939Z,36.33
2023-05-08T17:53:39.470Z,36.96
2023-05-08T17:56:06.347Z,37.27
2023-05-08T17:58:32.682Z,37.08
2023-05-08T18:00:59.112Z,37.02
2023-05-08T18:03:25.931Z,37.25
2023-05-08T18:05:52.372Z,37.66
2023-05-08T18:08:18.719Z,37.97
2023-05-08T18:10:45.142Z,38.21
2023-05-08T18:13:11.556Z,38.12
2023-05-08T18:15:39.783Z,38.26
2023-05-08T18:18:06.228Z,38.73
2023-05-08T18:20:32.640Z,39.42
2023-05-08T18:22:58.966Z,39.88
2023-05-08T18:25:25.359Z,40.09
2023-05-08T18:27:51.780Z,40.04
2023-05-08T18:30:18.118Z,40.23
2023-05-08T18:32:44.575Z,40.52
2023-05-08T18:35:10.953Z,40.61
2023-05-08T18:37:37.382Z,40.97
2023-05-08T18:40:05.096Z,41.21
2023-05-08T18:42:31.410Z,41.23
2023-05-08T18:44:57.890Z,41.00
2023-05-08T18:47:24.547Z,41.04
2023-05-08T18:49:51.861Z,40.89
2023-05-08T18:52:18.227Z,41.35
2023-05-08T18:54:44.583Z,41.71
2023-05-08T18:57:10.952Z,43.03
2023-05-08T18:59:37.370Z,42.72
2023-05-08T19:02:03.947Z,43.45
2023-05-08T19:04:30.398Z,43.43
2023-05-08T19:06:56.874Z,44.58
2023-05-08T19:09:23.369Z,44.99
2023-05-08T19:11:49.690Z,46.17
2023-05-08T19:14:16.017Z,46.35
2023-05-08T19:16:42.438Z,46.78
2023-05-08T19:19:08.752Z,47.54
2023-05-08T19:21:35.098Z,48.09
2023-05-08T19:24:01.459Z,48.54
2023-05-08T19:26:27.827Z,49.34
2023-05-08T19:28:54.144Z,49.77
2023-05-08T19:31:20.507Z,49.70
2023-05-08T19:33:48.223Z,49.45
2023-05-08T19:36:14.633Z,49.99
2023-05-08T19:38:41.051Z,51.04
2023-05-08T19:41:07.486Z,52.07
2023-05-08T19:43:33.849Z,51.71
2023-05-08T19:46:01.369Z,51.72
2023-05-08T19:48:27.783Z,52.32
2023-05-08T19:50:55.202Z,52.77
2023-05-08T19:53:22.197Z,52.75
2023-05-08T19:55:49.354Z,52.48
2023-05-08T19:58:17.450Z,52.84
2023-05-08T20:00:50.935Z,51.78
2023-05-08T20:03:17.808Z,51.81
2023-05-08T20:05:44.251Z,52.06
2023-05-08T20:08:10.587Z,52.26
2023-05-08T20:10:37.050Z,52.45
2023-05-08T20:13:03.476Z,52.42
2023-05-08T20:15:29.930Z,53.37
2023-05-08T20:17:56.310Z,54.34
2023-05-08T20:20:22.778Z,54.22
2023-05-08T20:22:49.103Z,53.87
2023-05-08T20:25:15.405Z,54.84
2023-05-08T20:27:41.794Z,54.65
2023-05-08T20:30:08.301Z,54.04
2023-05-08T20:32:34.644Z,53.74
2023-05-08T20:35:01.757Z,54.00
2023-05-08T20:37:28.165Z,55.07
2023-05-08T20:39:54.517Z,54.81
2023-05-08T20:42:20.852Z,54.38
2023-05-08T20:44:47.187Z,54.66
2023-05-08T20:47:13.501Z,54.41
2023-05-08T20:49:39.868Z,54.01
2023-05-08T20:52:06.272Z,54.72
2023-05-08T20:54:32.657Z,55.33
2023-05-08T20:56:59.439Z,54.95
2023-05-08T20:59:25.781Z,54.73
2023-05-08T21:01:52.139Z,54.86
2023-05-08T21:04:18.536Z,54.50
2023-05-08T21:06:44.916Z,55.95
2023-05-08T21:09:11.235Z,55.30
2023-05-08T21:11:37.647Z,55.34
2023-05-08T21:14:04.005Z,56.21
2023-05-08T21:16:30.498Z,56.01
2023-05-08T21:18:59.442Z,55.88
2023-05-08T21:21:25.856Z,55.92
2023-05-08T21:23:52.197Z,56.41
2023-05-08T21:26:19.983Z,56.48
2023-05-08T21:28:46.323Z,55.77
2023-05-08T21:31:12.742Z,56.61
2023-05-08T21:33:39.407Z,56.44
2023-05-08T21:36:05.885Z,56.31
2023-05-08T21:38:32.212Z,55.50
2023-05-08T21:41:04.708Z,55.83
2023-05-08T21:43:31.081Z,56.22
2023-05-08T21:45:57.501Z,56.76
2023-05-08T21:48:24.445Z,56.68
2023-05-08T21:50:50.764Z,57.20
2023-05-08T21:53:17.115Z,57.33
2023-05-08T21:55:43.500Z,56.93
2023-05-08T21:58:09.815Z,57.01
2023-05-08T22:00:36.350Z,56.21
2023-05-08T22:03:02.881Z,56.98
2023-05-08T22:05:29.328Z,57.25
2023-05-08T22:07:55.673Z,56.29
2023-05-08T22:10:22.166Z,57.32
2023-05-08T22:12:48.621Z,56.68
2023-05-08T22:15:28.262Z,56.91
2023-05-08T22:17:56.125Z,57.50
2023-05-08T22:20:22.576Z,57.18
2023-05-08T22:22:48.944Z,56.75
2023-05-08T22:25:15.529Z,57.34
2023-05-08T22:27:42.051Z,57.72
2023-05-08T22:30:08.450Z,57.94
2023-05-08T22:32:34.990Z,57.36
2023-05-08T22:35:01.386Z,57.16
2023-05-08T22:37:27.848Z,57.55
2023-05-08T22:39:54.202Z,57.39
2023-05-08T22:42:20.546Z,57.43
2023-05-08T22:44:56.819Z,58.05
2023-05-08T22:47:23.653Z,57.77
2023-05-08T22:49:50.351Z,57.21
2023-05-08T22:52:17.031Z,57.12
2023-05-08T22:54:43.355Z,58.27
2023-05-08T22:57:09.767Z,58.00
2023-05-08T22:59:36.242Z,57.74
2023-05-08T23:02:02.672Z,58.57
2023-05-08T23:04:29.063Z,58.12
2023-05-08T23:06:55.485Z,57.67
2023-05-08T23:09:22.900Z,57.91
2023-05-08T23:11:49.966Z,57.99
2023-05-08T23:14:16.311Z,59.03
2023-05-08T23:16:42.948Z,58.65
2023-05-08T23:19:10.040Z,59.16
2023-05-08T23:21:36.362Z,58.28
2023-05-08T23:24:02.704Z,57.98
2023-05-08T23:26:29.093Z,58.03
2023-05-08T23:28:55.431Z,57.69
2023-05-08T23:31:21.822Z,57.74
2023-05-08T23:33:48.149Z,58.49
2023-05-08T23:36:15.343Z,58.40
2023-05-08T23:38:41.708Z,57.78
2023-05-08T23:41:09.215Z,58.57
2023-05-08T23:43:35.857Z,58.33
2023-05-08T23:46:02.266Z,58.36
2023-05-08T23:48:28.610Z,58.21
2023-05-08T23:50:54.929Z,58.10
2023-05-08T23:53:21.641Z,57.67
2023-05-08T23:55:52.273Z,58.66
2023-05-08T23:58:18.651Z,58.71
